Time;durP1;ratioP1;P1;durP2;ratioP2;P2;SDS_P1;SDS_P2;PMS_P1;PMS_P2;Temp;Humidity;BMP_temperature;BMP_pressure;BME280_temperature;BME280_humidity;BME280_pressure;Samples;Min_cycle;Max_cycle;Signal;HPM_P1;HPM_P2
2021/03/08 00:00:22;;;;;;;8.55;7.22;;;;;;;4.08;69.68;101393.25;691954;28;22345;-58
2021/03/08 00:00:46;;;;;;;11.25;8.00;;;;;;;4.09;69.69;101384.22;689657;28;90791;-60
2021/03/08 00:01:07;;;;;;;10.30;7.40;;;;;;;4.09;69.76;101386.91;691548;28;69456;-59
2021/03/08 00:01:28;;;;;;;12.55;8.02;;;;;;;4.07;69.67;101380.84;692349;28;21523;-60
2021/03/08 00:01:50;;;;;;;10.45;7.35;;;;;;;4.09;69.69;101384.22;691667;28;46472;-60
2021/03/08 00:02:11;;;;;;;9.25;7.07;;;;;;;4.06;69.71;101384.47;692136;28;22485;-59
2021/03/08 00:02:32;;;;;;;9.43;7.07;;;;;;;4.08;69.76;101390.56;691814;28;46577;-57
2021/03/08 00:02:55;;;;;;;9.75;7.32;;;;;;;4.07;69.56;101384.34;692644;28;23582;-59
2021/03/08 00:03:17;;;;;;;10.82;7.80;;;;;;;4.08;69.56;101394.09;690664;28;68349;-59
2021/03/08 00:03:39;;;;;;;9.82;7.00;;;;;;;4.07;69.65;101389.69;692765;28;46379;-59
2021/03/08 00:04:01;;;;;;;9.93;7.28;;;;;;;4.06;69.71;101385.34;691917;28;23479;-59
2021/03/08 00:04:24;;;;;;;8.93;6.78;;;;;;;4.08;69.74;101393.25;689483;28;15026;-60
2021/03/08 00:04:45;;;;;;;10.23;7.13;;;;;;;4.06;69.61;101385.34;689300;28;22392;-61
2021/03/08 00:05:07;;;;;;;10.02;7.28;;;;;;;4.07;69.54;101396.88;689770;28;23519;-59
2021/03/08 00:05:29;;;;;;;7.65;6.55;;;;;;;4.08;69.59;101387.91;687165;28;69418;-61
2021/03/08 00:05:50;;;;;;;7.65;6.03;;;;;;;4.07;69.64;101388.84;685401;28;22317;-59
2021/03/08 00:06:11;;;;;;;8.60;6.22;;;;;;;4.06;69.75;101393.34;688559;28;33973;-62
2021/03/08 00:06:33;;;;;;;8.05;6.68;;;;;;;4.04;69.54;101391.75;689428;28;23406;-62
2021/03/08 00:06:54;;;;;;;9.43;7.03;;;;;;;4.05;69.78;101391.66;689419;28;17038;-59
2021/03/08 00:07:16;;;;;;;10.05;6.88;;;;;;;4.06;69.73;101395.16;689931;28;1450;-60
2021/03/08 00:07:37;;;;;;;8.57;6.30;;;;;;;4.04;69.80;101392.59;689418;28;44397;-61
2021/03/08 00:07:59;;;;;;;7.32;6.00;;;;;;;4.02;69.72;101396.38;692560;28;21501;-60
2021/03/08 00:08:20;;;;;;;9.75;6.22;;;;;;;4.05;69.58;101397.00;692192;28;21183;-62
2021/03/08 00:08:41;;;;;;;8.45;6.10;;;;;;;4.05;69.29;101401.50;692705;28;45805;-61
2021/03/08 00:09:03;;;;;;;7.28;5.88;;;;;;;4.05;69.56;101399.66;691901;28;22405;-61
2021/03/08 00:09:24;;;;;;;6.85;5.70;;;;;;;4.05;69.57;101401.50;692498;28;23477;-61
2021/03/08 00:09:45;;;;;;;9.23;5.95;;;;;;;4.05;69.39;101402.34;692946;28;13323;-61
2021/03/08 00:10:08;;;;;;;10.60;6.22;;;;;;;4.05;69.32;101396.16;690802;28;44390;-61
2021/03/08 00:10:29;;;;;;;6.97;6.03;;;;;;;4.05;69.39;101407.69;690965;28;45275;-61
2021/03/08 00:10:50;;;;;;;7.18;5.85;;;;;;;4.04;69.41;101399.78;691436;28;47179;-61
2021/03/08 00:11:11;;;;;;;6.30;5.70;;;;;;;4.05;69.49;101398.81;692417;28;21584;-61
2021/03/08 00:11:33;;;;;;;8.32;5.82;;;;;;;4.04;69.57;101397.09;692745;28;22410;-61
2021/03/08 00:11:54;;;;;;;8.65;6.05;;;;;;;4.04;69.40;101394.44;691809;28;47176;-61
2021/03/08 00:12:16;;;;;;;7.03;5.90;;;;;;;4.03;69.44;101398.94;691623;28;22409;-61
2021/03/08 00:12:37;;;;;;;8.02;5.50;;;;;;;4.02;69.44;101399.91;690978;28;45466;-61
2021/03/08 00:12:58;;;;;;;7.63;5.65;;;;;;;4.03;69.35;101401.63;691966;28;22075;-61
2021/03/08 00:13:19;;;;;;;8.00;5.97;;;;;;;4.04;69.36;101405.97;692212;28;22147;-60
2021/03/08 00:13:41;;;;;;;6.85;5.60;;;;;;;4.03;69.34;101403.41;692467;28;22387;-61
2021/03/08 00:14:05;;;;;;;6.30;5.57;;;;;;;4.01;69.24;101400.03;692049;28;40851;-61
2021/03/08 00:14:26;;;;;;;7.65;5.70;;;;;;;4.02;69.32;101396.38;689672;28;69440;-61
2021/03/08 00:14:47;;;;;;;6.65;5.63;;;;;;;4.01;69.24;101400.84;692726;28;13133;-62
2021/03/08 00:15:09;;;;;;;5.68;5.10;;;;;;;4.01;69.37;101400.84;691826;28;42589;-59
2021/03/08 00:15:31;;;;;;;6.20;5.60;;;;;;;4.01;69.44;101400.84;690913;28;45067;-59
2021/03/08 00:15:52;;;;;;;7.70;5.75;;;;;;;4.00;69.35;101392.97;692021;28;9586;-61
2021/03/08 00:16:13;;;;;;;7.22;5.60;;;;;;;4.01;69.62;101397.34;692021;28;22252;-59
2021/03/08 00:16:34;;;;;;;7.07;5.53;;;;;;;4.00;69.49;101400.97;692712;28;21577;-61
2021/03/08 00:16:55;;;;;;;6.03;5.30;;;;;;;4.01;69.36;101400.03;692087;28;22391;-61
2021/03/08 00:17:17;;;;;;;7.05;5.50;;;;;;;3.99;69.32;101393.94;691748;28;21536;-61
2021/03/08 00:17:38;;;;;;;6.72;5.47;;;;;;;3.98;69.40;101398.44;691483;28;46039;-60
2021/03/08 00:17:59;;;;;;;6.45;5.32;;;;;;;4.00;69.39;101400.97;692620;28;22452;-62
2021/03/08 00:18:20;;;;;;;7.65;5.47;;;;;;;4.00;69.32;101398.31;692363;28;20816;-61
2021/03/08 00:18:42;;;;;;;8.05;5.32;;;;;;;4.00;69.44;101400.97;692814;28;9522;-60
2021/03/08 00:19:06;;;;;;;6.70;5.20;;;;;;;4.00;69.54;101403.66;691936;28;40348;-61
2021/03/08 00:19:27;;;;;;;8.45;5.80;;;;;;;3.98;69.61;101401.09;690154;28;92203;-62
2021/03/08 00:19:48;;;;;;;8.25;5.70;;;;;;;3.99;69.64;101400.13;692410;28;22628;-61
2021/03/08 00:20:11;;;;;;;5.63;5.05;;;;;;;3.99;69.54;101401.97;692473;28;22248;-61
2021/03/08 00:20:33;;;;;;;6.85;5.10;;;;;;;3.99;69.56;101405.47;690439;28;68254;-61
2021/03/08 00:20:54;;;;;;;6.20;5.30;;;;;;;3.99;69.50;101402.81;692989;28;915;-61
2021/03/08 00:21:15;;;;;;;6.47;5.30;;;;;;;4.00;69.38;101398.31;692593;28;22390;-61
2021/03/08 00:21:36;;;;;;;5.88;5.22;;;;;;;4.01;69.48;101402.69;693461;28;23312;-61
2021/03/08 00:21:57;;;;;;;6.30;5.45;;;;;;;3.97;69.27;101402.09;692446;28;22364;-61
2021/03/08 00:22:19;;;;;;;7.45;5.50;;;;;;;4.01;69.28;101408.03;692265;28;22403;-61
2021/03/08 00:22:40;;;;;;;6.68;5.28;;;;;;;3.98;69.18;101398.44;691355;28;44391;-61
2021/03/08 00:23:01;;;;;;;5.88;4.78;;;;;;;4.00;69.37;101404.53;692176;28;23473;-61
2021/03/08 00:23:22;;;;;;;6.75;5.05;;;;;;;4.00;69.35;101400.97;692187;28;22561;-61
2021/03/08 00:23:44;;;;;;;6.15;5.30;;;;;;;4.00;69.20;101409.00;692955;28;6079;-61
2021/03/08 00:24:06;;;;;;;5.80;5.10;;;;;;;4.00;69.32;101407.19;692175;28;44233;-61
2021/03/08 00:24:27;;;;;;;6.18;4.95;;;;;;;4.00;69.32;101404.53;692427;28;16360;-59
2021/03/08 00:24:48;;;;;;;7.00;5.25;;;;;;;3.99;69.40;101401.97;692387;28;22446;-58
2021/03/08 00:25:12;;;;;;;6.20;5.07;;;;;;;3.99;69.49;101408.16;692249;28;21966;-58
2021/03/08 00:25:34;;;;;;;5.55;4.75;;;;;;;3.96;69.33;101397.69;689139;28;92296;-60
2021/03/08 00:25:55;;;;;;;6.43;4.90;;;;;;;3.98;69.43;101406.44;691350;28;44916;-61
2021/03/08 00:26:16;;;;;;;6.40;5.05;;;;;;;3.99;69.42;101404.63;691815;28;23094;-59
2021/03/08 00:26:37;;;;;;;5.90;4.63;;;;;;;3.97;69.42;101405.59;693190;28;22399;-60
2021/03/08 00:26:58;;;;;;;5.97;4.68;;;;;;;3.97;69.51;101399.41;691922;28;21563;-61
2021/03/08 00:27:20;;;;;;;5.70;4.90;;;;;;;3.99;69.50;101405.47;691110;28;22392;-61
2021/03/08 00:27:41;;;;;;;5.50;4.80;;;;;;;3.97;69.45;101402.94;691315;28;45283;-61
2021/03/08 00:28:02;;;;;;;5.82;5.10;;;;;;;3.97;69.34;101400.25;692403;28;21535;-60
2021/03/08 00:28:23;;;;;;;6.20;5.05;;;;;;;3.94;69.36;101400.50;692509;28;23471;-61
2021/03/08 00:28:45;;;;;;;5.50;4.90;;;;;;;3.97;69.57;101405.59;692348;28;23452;-61
2021/03/08 00:29:06;;;;;;;5.55;4.95;;;;;;;3.94;69.59;101395.16;692847;28;16656;-59
2021/03/08 00:29:27;;;;;;;5.85;5.03;;;;;;;3.95;69.55;101402.19;692723;28;18833;-61
2021/03/08 00:29:48;;;;;;;5.20;4.70;;;;;;;3.95;69.48;101396.03;692820;28;12202;-61
2021/03/08 00:30:11;;;;;;;5.68;5.07;;;;;;;3.95;69.55;101407.53;692612;28;20572;-61
2021/03/08 00:30:32;;;;;;;8.63;5.47;;;;;;;3.92;69.57;101393.56;690343;28;68110;-60
2021/03/08 00:30:53;;;;;;;6.20;5.07;;;;;;;3.93;69.54;101401.47;692303;28;22260;-61
2021/03/08 00:31:14;;;;;;;5.20;4.70;;;;;;;3.93;69.44;101401.47;692389;28;24385;-60
2021/03/08 00:31:35;;;;;;;5.22;4.60;;;;;;;3.94;69.58;101397.81;693397;28;22312;-62
2021/03/08 00:31:58;;;;;;;9.05;5.40;;;;;;;3.93;69.50;101398.81;692923;28;1062;-61
2021/03/08 00:32:19;;;;;;;7.22;5.50;;;;;;;3.94;69.50;101402.31;691887;28;21523;-60
2021/03/08 00:32:41;;;;;;;5.68;5.13;;;;;;;3.93;69.57;101404.16;692907;28;3722;-62
2021/03/08 00:33:02;;;;;;;6.10;5.05;;;;;;;3.93;69.41;101403.28;691798;28;43788;-61
2021/03/08 00:33:23;;;;;;;6.13;5.03;;;;;;;3.89;69.51;101396.47;692314;28;23490;-61
2021/03/08 00:33:44;;;;;;;6.43;4.97;;;;;;;3.94;69.44;101407.66;692325;28;21367;-60
2021/03/08 00:34:06;;;;;;;6.15;5.32;;;;;;;3.93;69.60;101405.94;693340;28;22219;-61
2021/03/08 00:34:27;;;;;;;6.72;5.18;;;;;;;3.94;69.32;101405.00;691280;28;34651;-61
2021/03/08 00:34:49;;;;;;;7.20;5.25;;;;;;;3.93;69.62;101409.50;692506;28;22416;-61
2021/03/08 00:35:11;;;;;;;6.63;4.90;;;;;;;3.94;69.46;101415.69;691925;28;42221;-61
2021/03/08 00:35:32;;;;;;;7.43;5.20;;;;;;;3.93;69.55;101409.50;690569;28;43864;-61
2021/03/08 00:35:53;;;;;;;7.75;5.38;;;;;;;3.94;69.60;101407.66;692014;28;21383;-61
2021/03/08 00:36:15;;;;;;;6.82;5.35;;;;;;;3.94;69.46;101410.34;691275;28;46211;-60
2021/03/08 00:36:36;;;;;;;6.05;4.90;;;;;;;3.93;69.63;101412.16;693713;28;21541;-61
2021/03/08 00:36:57;;;;;;;7.25;5.10;;;;;;;3.93;69.55;101409.50;692533;28;22242;-61
2021/03/08 00:37:18;;;;;;;6.43;5.10;;;;;;;3.93;69.49;101413.97;692168;28;23524;-61
2021/03/08 00:37:40;;;;;;;6.00;5.10;;;;;;;3.95;69.42;101412.06;692709;28;12750;-61
2021/03/08 00:38:01;;;;;;;5.93;5.10;;;;;;;3.94;69.44;101410.34;692846;28;964;-61
2021/03/08 00:38:22;;;;;;;6.38;4.97;;;;;;;3.94;69.32;101413.00;693004;28;11368;-61
2021/03/08 00:38:43;;;;;;;6.20;5.13;;;;;;;3.95;69.42;101412.06;692616;28;16640;-61
2021/03/08 00:39:05;;;;;;;7.18;4.70;;;;;;;3.95;69.37;101412.06;692999;28;13535;-61
2021/03/08 00:39:26;;;;;;;6.07;4.70;;;;;;;3.95;69.15;101415.56;691336;28;46296;-60
2021/03/08 00:39:47;;;;;;;6.22;5.00;;;;;;;3.93;69.36;101412.16;691643;28;44756;-61
2021/03/08 00:40:11;;;;;;;6.20;4.93;;;;;;;3.97;69.29;101410.09;692272;28;22414;-61
2021/03/08 00:40:32;;;;;;;5.80;4.72;;;;;;;3.97;69.28;101412.78;690894;28;50384;-60
2021/03/08 00:40:53;;;;;;;6.18;4.90;;;;;;;3.95;69.05;101412.91;692932;28;939;-61
2021/03/08 00:41:14;;;;;;;5.90;5.30;;;;;;;3.95;69.28;101412.06;691839;28;46376;-59
2021/03/08 00:41:35;;;;;;;6.10;4.90;;;;;;;3.95;69.31;101409.38;693280;28;23495;-61
2021/03/08 00:41:56;;;;;;;4.95;4.50;;;;;;;3.96;69.09;101414.56;692410;28;23472;-59
2021/03/08 00:42:17;;;;;;;6.10;4.80;;;;;;;3.95;69.09;101409.38;691137;28;22379;-59
2021/03/08 00:42:40;;;;;;;6.15;4.68;;;;;;;3.95;69.25;101404.03;692530;28;23637;-58
2021/03/08 00:43:01;;;;;;;5.25;4.70;;;;;;;3.94;69.08;101405.84;691624;28;47036;-58
2021/03/08 00:43:22;;;;;;;5.68;5.07;;;;;;;3.94;69.11;101405.84;691889;28;22413;-61
2021/03/08 00:43:43;;;;;;;5.32;4.82;;;;;;;3.93;68.94;101397.94;692272;28;23517;-61
2021/03/08 00:44:06;;;;;;;6.07;4.93;;;;;;;3.94;69.19;101405.84;692646;28;19501;-61
2021/03/08 00:44:27;;;;;;;5.25;4.55;;;;;;;3.94;69.11;101405.00;690455;28;77305;-61
2021/03/08 00:44:48;;;;;;;6.75;4.80;;;;;;;3.93;69.06;101405.94;692606;28;20371;-60
2021/03/08 00:45:11;;;;;;;5.57;4.43;;;;;;;3.93;69.07;101400.59;692870;28;9331;-60
2021/03/08 00:45:33;;;;;;;6.72;4.78;;;;;;;3.93;69.00;101408.63;686765;28;69190;-60
2021/03/08 00:45:58;;;;;;;5.13;4.63;;;;;;;3.93;69.21;101405.94;681986;28;135084;-61
2021/03/08 00:46:19;;;;;;;5.70;4.78;;;;;;;3.92;69.04;101404.28;687086;28;21569;-61
2021/03/08 00:46:40;;;;;;;5.22;4.70;;;;;;;3.92;69.15;101407.78;684166;28;22396;-59
2021/03/08 00:47:01;;;;;;;5.20;4.70;;;;;;;3.93;69.26;101403.28;681383;29;22306;-59
2021/03/08 00:47:24;;;;;;;5.32;4.50;;;;;;;3.93;69.54;101405.94;682597;28;23490;-59
2021/03/08 00:47:46;;;;;;;5.13;4.57;;;;;;;3.92;69.10;101406.94;679798;28;67484;-56
2021/03/08 00:48:07;;;;;;;5.15;4.65;;;;;;;3.92;69.16;101407.78;683596;28;46483;-60
2021/03/08 00:48:32;;;;;;;4.88;4.38;;;;;;;3.93;69.06;101414.84;682081;28;114929;-61
2021/03/08 00:48:54;;;;;;;5.05;4.55;;;;;;;3.93;69.13;101408.63;688082;28;21521;-61
2021/03/08 00:49:16;;;;;;;5.72;4.90;;;;;;;3.93;69.13;101409.50;690446;28;25769;-61
2021/03/08 00:49:37;;;;;;;6.53;4.93;;;;;;;3.92;69.06;101407.78;688972;28;47325;-61
2021/03/08 00:49:58;;;;;;;6.35;4.90;;;;;;;3.93;68.99;101417.50;690738;28;22500;-61
2021/03/08 00:50:21;;;;;;;6.20;4.82;;;;;;;3.93;69.11;101412.16;689594;28;8615;-61
2021/03/08 00:50:43;;;;;;;5.13;4.63;;;;;;;3.93;69.04;101416.66;685909;28;66379;-61
2021/03/08 00:51:11;;;;;;;6.05;4.78;;;;;;;3.93;69.01;101412.16;682796;28;123670;-61
2021/03/08 00:51:35;;;;;;;6.32;4.90;;;;;;;3.93;69.11;101416.66;687314;28;23489;-61
2021/03/08 00:51:56;;;;;;;5.75;4.80;;;;;;;3.94;69.06;101415.69;685097;28;67282;-61
2021/03/08 00:52:17;;;;;;;5.53;4.75;;;;;;;3.93;68.96;101409.50;686643;28;22387;-61
2021/03/08 00:52:39;;;;;;;5.88;5.22;;;;;;;3.93;69.04;101414.84;687604;28;44372;-61
2021/03/08 00:53:00;;;;;;;7.40;5.38;;;;;;;3.93;69.03;101411.28;689938;28;23433;-61
2021/03/08 00:53:26;;;;;;;6.18;5.05;;;;;;;3.94;68.97;101407.66;688534;28;137291;-62
2021/03/08 00:53:48;;;;;;;6.50;4.80;;;;;;;3.93;69.00;101420.19;688909;28;29428;-61
2021/03/08 00:54:10;;;;;;;6.65;4.88;;;;;;;3.93;68.99;101406.81;690068;28;23385;-61
2021/03/08 00:54:31;;;;;;;7.50;5.20;;;;;;;3.94;68.94;101410.34;687994;28;37206;-61
2021/03/08 00:54:52;;;;;;;11.07;5.80;;;;;;;3.93;68.99;101412.16;685765;28;22529;-61
2021/03/08 00:55:15;;;;;;;8.65;5.20;;;;;;;3.94;68.75;101410.34;683053;28;46322;-61
2021/03/08 00:55:37;;;;;;;7.10;4.93;;;;;;;3.91;68.90;101397.22;682825;28;44361;-60
2021/03/08 00:55:58;;;;;;;5.97;5.20;;;;;;;3.92;68.83;101407.78;686083;28;21556;-61
2021/03/08 00:56:19;;;;;;;6.28;5.22;;;;;;;3.94;68.78;101407.66;682441;28;44965;-61
2021/03/08 00:56:43;;;;;;;5.40;4.90;;;;;;;3.93;68.64;101403.28;685196;28;22556;-61
2021/03/08 00:57:05;;;;;;;5.38;4.63;;;;;;;3.92;68.72;101401.59;679836;28;92247;-61
2021/03/08 00:57:26;;;;;;;6.43;5.22;;;;;;;3.93;68.64;101409.50;683542;28;46396;-61
2021/03/08 00:57:48;;;;;;;5.90;5.30;;;;;;;3.93;68.66;101408.63;681190;28;32478;-61
2021/03/08 00:58:11;;;;;;;5.63;5.07;;;;;;;3.92;68.75;101407.78;683535;28;45342;-61
2021/03/08 00:58:32;;;;;;;6.40;4.70;;;;;;;3.91;68.81;101408.75;683573;28;5277;-61
2021/03/08 00:58:53;;;;;;;7.50;4.93;;;;;;;3.92;68.76;101410.44;682247;28;16756;-61
2021/03/08 00:59:14;;;;;;;7.07;5.40;;;;;;;3.93;68.67;101411.28;685757;28;7782;-56
2021/03/08 00:59:36;;;;;;;6.63;5.20;;;;;;;3.93;68.54;101409.50;684477;28;22266;-60
2021/03/08 00:59:57;;;;;;;6.47;5.00;;;;;;;3.93;68.59;101409.50;683469;28;21527;-59
2021/03/08 01:00:22;;;;;;;5.70;4.88;;;;;;;3.93;68.56;101404.16;684503;28;44381;-57
2021/03/08 01:00:46;;;;;;;6.20;5.00;;;;;;;3.93;68.43;101408.63;684357;28;137593;-55
2021/03/08 01:01:08;;;;;;;5.28;4.78;;;;;;;3.92;68.51;101405.09;686564;28;22410;-58
2021/03/08 01:01:29;;;;;;;6.35;4.55;;;;;;;3.93;68.48;101403.28;682872;28;46327;-57
2021/03/08 01:01:50;;;;;;;5.88;4.65;;;;;;;3.93;68.55;101400.59;683744;28;22392;-58
2021/03/08 01:02:11;;;;;;;6.00;4.90;;;;;;;3.92;68.41;101401.59;681728;28;22550;-61
2021/03/08 01:02:35;;;;;;;5.13;4.63;;;;;;;3.92;68.45;101397.09;677923;29;69765;-57
2021/03/08 01:02:57;;;;;;;6.05;4.90;;;;;;;3.92;68.60;101399.75;676075;29;67350;-60
2021/03/08 01:03:22;;;;;;;5.18;4.65;;;;;;;3.92;68.25;101393.56;675306;29;114624;-58
2021/03/08 01:03:47;;;;;;;5.03;4.53;;;;;;;3.91;68.47;101394.53;676636;29;116210;-60
2021/03/08 01:04:08;;;;;;;5.35;4.75;;;;;;;3.90;68.37;101395.50;679565;29;21698;-55
2021/03/08 01:04:30;;;;;;;6.05;5.07;;;;;;;3.91;68.39;101398.06;679823;28;24441;-58
2021/03/08 01:04:52;;;;;;;5.68;4.45;;;;;;;3.91;68.47;101395.38;679072;29;57249;-60
2021/03/08 01:05:17;;;;;;;6.55;5.18;;;;;;;3.90;68.43;101396.38;680719;28;37897;-58
2021/03/08 01:05:41;;;;;;;6.35;5.10;;;;;;;3.90;68.42;101399.03;681376;28;68791;-58
2021/03/08 01:06:09;;;;;;;6.70;5.07;;;;;;;3.90;68.45;101404.38;681862;28;61164;-60
2021/03/08 01:06:33;;;;;;;5.70;4.50;;;;;;;3.90;68.31;101399.03;681322;28;73846;-59
2021/03/08 01:06:54;;;;;;;7.20;4.57;;;;;;;3.90;68.40;101406.19;683821;28;12654;-60
2021/03/08 01:07:17;;;;;;;5.93;4.90;;;;;;;3.88;68.44;101400.13;683066;28;69771;-62
2021/03/08 01:07:41;;;;;;;5.68;4.53;;;;;;;3.89;68.48;101397.31;681076;28;92334;-62
2021/03/08 01:08:04;;;;;;;6.82;4.90;;;;;;;3.89;68.50;101402.66;682675;28;46429;-60
2021/03/08 01:08:30;;;;;;;6.72;4.93;;;;;;;3.91;68.40;101405.22;679839;28;137940;-62
2021/03/08 01:08:51;;;;;;;5.15;4.40;;;;;;;3.88;68.57;101398.28;682286;28;23485;-62
2021/03/08 01:09:13;;;;;;;5.00;4.50;;;;;;;3.89;68.50;101400.00;682134;28;45227;-62
2021/03/08 01:09:36;;;;;;;5.07;4.55;;;;;;;3.90;68.36;101400.84;683248;28;21665;-61
2021/03/08 01:09:58;;;;;;;6.30;4.90;;;;;;;3.89;68.42;101405.34;681737;28;59719;-62
2021/03/08 01:10:24;;;;;;;5.10;4.60;;;;;;;3.91;68.33;101405.22;683936;28;47223;-60
2021/03/08 01:10:45;;;;;;;5.55;4.85;;;;;;;3.90;68.44;101399.03;684029;28;138127;-62
2021/03/08 01:11:13;;;;;;;6.85;4.70;;;;;;;3.90;68.27;101400.84;684987;28;134465;-62
2021/03/08 01:11:45;;;;;;;6.13;4.53;;;;;;;3.91;68.26;101407.91;682174;28;157627;-60
2021/03/08 01:12:10;;;;;;;7.43;4.70;;;;;;;3.92;68.19;101405.09;686220;28;114176;-62
2021/03/08 01:12:35;;;;;;;5.78;4.68;;;;;;;3.91;68.12;101395.38;683756;28;114813;-61
2021/03/08 01:12:56;;;;;;;5.13;4.63;;;;;;;3.92;68.20;101409.63;685578;28;37935;-61
2021/03/08 01:13:20;;;;;;;6.18;4.70;;;;;;;3.93;68.12;101404.16;683142;28;86336;-61
2021/03/08 01:13:44;;;;;;;6.13;5.03;;;;;;;3.92;68.13;101405.09;685959;28;92333;-61
2021/03/08 01:14:05;;;;;;;5.30;4.75;;;;;;;3.93;68.05;101404.16;688914;28;21510;-61
2021/03/08 01:14:27;;;;;;;5.30;4.78;;;;;;;3.94;67.99;101402.31;690742;28;1508;-60
2021/03/08 01:14:48;;;;;;;6.03;4.47;;;;;;;3.94;68.08;101405.00;692189;28;20039;-61
2021/03/08 01:15:11;;;;;;;6.10;4.53;;;;;;;3.94;68.08;101411.19;692926;28;20863;-61
2021/03/08 01:15:32;;;;;;;7.03;4.80;;;;;;;3.94;68.02;101411.19;690364;28;55559;-61
2021/03/08 01:15:54;;;;;;;6.80;4.50;;;;;;;3.94;68.05;101403.16;692717;28;1100;-60
2021/03/08 01:16:15;;;;;;;4.93;4.40;;;;;;;3.95;67.89;101412.06;692236;28;22409;-61
2021/03/08 01:16:36;;;;;;;5.13;4.65;;;;;;;3.94;67.93;101405.00;692389;28;11120;-61
2021/03/08 01:16:57;;;;;;;5.80;4.50;;;;;;;3.94;67.95;101407.66;691483;28;44083;-58
2021/03/08 01:17:18;;;;;;;4.57;4.18;;;;;;;3.93;67.87;101405.94;692007;28;10741;-58
2021/03/08 01:17:40;;;;;;;4.97;4.47;;;;;;;3.93;67.93;101405.94;693175;28;23435;-61
2021/03/08 01:18:01;;;;;;;6.10;4.30;;;;;;;3.92;67.75;101402.44;692036;28;21281;-62
2021/03/08 01:18:22;;;;;;;5.47;4.40;;;;;;;3.93;67.81;101397.94;692056;28;22412;-62
2021/03/08 01:18:43;;;;;;;4.78;4.13;;;;;;;3.94;67.78;101405.00;691574;28;46293;-61
2021/03/08 01:19:04;;;;;;;5.85;4.22;;;;;;;3.91;67.75;101400.72;692261;28;23485;-61
2021/03/08 01:19:26;;;;;;;4.95;4.20;;;;;;;3.93;67.66;101406.81;691615;28;23586;-62
2021/03/08 01:19:48;;;;;;;4.78;4.38;;;;;;;3.92;67.77;101410.44;691529;28;39342;-62
2021/03/08 01:20:12;;;;;;;6.30;4.50;;;;;;;3.91;67.67;101405.22;693121;28;23438;-60
2021/03/08 01:20:33;;;;;;;5.57;4.50;;;;;;;3.91;67.53;101403.41;689951;28;90774;-59
2021/03/08 01:20:54;;;;;;;4.70;4.30;;;;;;;3.91;67.57;101402.56;692379;28;23689;-61
2021/03/08 01:21:15;;;;;;;5.20;4.70;;;;;;;3.90;67.54;101404.38;691077;28;42325;-59
2021/03/08 01:21:36;;;;;;;5.97;4.50;;;;;;;3.90;67.56;101400.84;692747;28;14309;-61
2021/03/08 01:21:58;;;;;;;5.65;4.28;;;;;;;3.90;67.54;101404.38;691993;28;22403;-60
2021/03/08 01:22:19;;;;;;;5.28;4.30;;;;;;;3.90;67.62;101398.16;692438;28;21540;-59
2021/03/08 01:22:40;;;;;;;5.20;4.35;;;;;;;3.90;67.60;101392.81;693075;28;22409;-61
2021/03/08 01:23:01;;;;;;;5.03;4.53;;;;;;;3.88;67.64;101400.13;692229;28;19991;-61
2021/03/08 01:23:23;;;;;;;5.50;4.35;;;;;;;3.88;67.62;101392.09;691405;28;38877;-61
2021/03/08 01:23:44;;;;;;;6.00;4.55;;;;;;;3.88;67.62;101402.78;691679;28;22139;-61
2021/03/08 01:24:07;;;;;;;5.53;4.70;;;;;;;3.88;67.53;101392.09;692277;28;17056;-59
2021/03/08 01:24:28;;;;;;;5.65;4.68;;;;;;;3.89;67.56;101393.81;690269;28;68633;-61
2021/03/08 01:24:49;;;;;;;5.88;4.47;;;;;;;3.89;67.54;101400.00;692486;28;22378;-61
2021/03/08 01:25:13;;;;;;;6.40;4.50;;;;;;;3.88;67.65;101394.78;693150;28;16469;-61
2021/03/08 01:25:35;;;;;;;5.90;4.30;;;;;;;3.88;67.44;101395.63;691332;28;30786;-61
2021/03/08 01:25:56;;;;;;;5.38;4.70;;;;;;;3.85;67.53;101390.50;690817;28;46095;-61
2021/03/08 01:26:17;;;;;;;6.60;4.80;;;;;;;3.87;67.51;101391.25;689727;28;22227;-61
2021/03/08 01:26:39;;;;;;;6.30;4.53;;;;;;;3.87;67.57;101395.72;691158;28;46281;-61
2021/03/08 01:27:00;;;;;;;6.47;4.88;;;;;;;3.85;67.59;101393.19;691470;28;44372;-61
2021/03/08 01:27:21;;;;;;;5.45;4.72;;;;;;;3.84;67.62;101395.97;692180;28;23461;-61
2021/03/08 01:27:42;;;;;;;5.03;4.35;;;;;;;3.85;67.61;101398.50;692298;28;22263;-61
2021/03/08 01:28:05;;;;;;;7.03;4.57;;;;;;;3.85;67.57;101397.69;692604;28;22234;-61
2021/03/08 01:28:26;;;;;;;5.80;4.18;;;;;;;3.84;67.52;101396.84;691014;28;47451;-61
2021/03/08 01:28:47;;;;;;;4.78;4.28;;;;;;;3.85;67.57;101395.00;692390;28;22182;-61
2021/03/08 01:29:08;;;;;;;4.78;4.25;;;;;;;3.85;67.56;101395.84;692575;28;23424;-61
2021/03/08 01:29:30;;;;;;;5.50;4.43;;;;;;;3.86;67.71;101389.53;691363;28;46192;-61
2021/03/08 01:29:51;;;;;;;5.78;4.70;;;;;;;3.86;67.55;101402.06;688834;28;23503;-61
2021/03/08 01:30:15;;;;;;;5.68;4.75;;;;;;;3.85;67.62;101393.19;690151;28;21309;-62
2021/03/08 01:30:38;;;;;;;6.40;4.80;;;;;;;3.83;67.63;101392.44;685802;28;115363;-61
2021/03/08 01:31:00;;;;;;;7.05;4.63;;;;;;;3.86;67.57;101397.56;687725;28;70639;-62
2021/03/08 01:31:21;;;;;;;5.97;4.28;;;;;;;3.86;67.50;101394.03;688540;28;46427;-60
2021/03/08 01:31:42;;;;;;;5.05;4.32;;;;;;;3.87;67.60;101399.28;690640;28;21525;-61
2021/03/08 01:32:04;;;;;;;5.40;4.45;;;;;;;3.86;67.73;101402.91;691939;28;22380;-62
2021/03/08 01:32:25;;;;;;;5.88;4.45;;;;;;;3.86;67.68;101405.56;691681;28;46393;-60
2021/03/08 01:32:47;;;;;;;5.38;4.60;;;;;;;3.86;67.41;101397.56;693002;28;24429;-58
2021/03/08 01:33:08;;;;;;;4.63;4.22;;;;;;;3.87;67.60;101401.94;691994;28;22222;-61
2021/03/08 01:33:35;;;;;;;5.68;4.78;;;;;;;3.87;67.66;101401.94;690713;28;60119;-60
2021/03/08 01:33:56;;;;;;;5.28;4.18;;;;;;;3.83;67.72;101392.44;691996;28;13756;-60
2021/03/08 01:34:17;;;;;;;5.03;4.10;;;;;;;3.87;67.65;101409.97;692371;28;20974;-59
2021/03/08 01:34:38;;;;;;;5.63;4.10;;;;;;;3.87;67.58;101401.94;691356;28;37738;-60
2021/03/08 01:35:00;;;;;;;6.75;4.18;;;;;;;3.87;67.57;101399.28;692183;28;13461;-58
2021/03/08 01:35:25;;;;;;;6.63;4.28;;;;;;;3.87;67.53;101403.75;688427;28;139034;-59
2021/03/08 01:35:47;;;;;;;4.72;4.32;;;;;;;3.87;67.47;101406.41;692573;28;22392;-61
2021/03/08 01:36:08;;;;;;;4.78;4.30;;;;;;;3.87;67.47;101406.41;692181;28;22378;-61
2021/03/08 01:36:29;;;;;;;4.70;4.30;;;;;;;3.85;67.53;101403.88;690819;28;44223;-59
2021/03/08 01:36:50;;;;;;;4.75;4.20;;;;;;;3.87;67.49;101409.09;692192;28;22486;-61
2021/03/08 01:37:11;;;;;;;5.22;4.53;;;;;;;3.87;67.40;101407.28;692579;28;18906;-60
2021/03/08 01:37:32;;;;;;;4.97;4.47;;;;;;;3.87;67.34;101403.75;692278;28;24072;-60
2021/03/08 01:37:53;;;;;;;4.90;4.38;;;;;;;3.87;67.33;101404.63;693015;28;6723;-58
2021/03/08 01:38:14;;;;;;;5.00;4.20;;;;;;;3.86;67.44;101402.91;692124;28;18459;-61
2021/03/08 01:38:36;;;;;;;6.05;4.05;;;;;;;3.86;67.43;101404.75;692950;28;6357;-60
2021/03/08 01:38:57;;;;;;;5.35;4.30;;;;;;;3.86;67.34;101400.22;692301;28;16373;-61
2021/03/08 01:39:18;;;;;;;4.55;4.15;;;;;;;3.86;67.43;101396.72;691254;28;46376;-61
2021/03/08 01:39:39;;;;;;;4.70;4.30;;;;;;;3.85;67.41;101403.03;692315;28;9201;-60
2021/03/08 01:40:05;;;;;;;4.63;4.13;;;;;;;3.84;67.52;101395.97;692755;28;895;-61
2021/03/08 01:40:37;;;;;;;4.18;3.58;;;;;;;3.86;67.44;101404.75;690884;28;60976;-60
2021/03/08 01:40:58;;;;;;;4.75;4.13;;;;;;;3.83;67.53;101402.28;688828;28;137554;-61
2021/03/08 01:41:19;;;;;;;4.55;4.05;;;;;;;3.82;67.41;101397.91;693398;28;7330;-61
2021/03/08 01:41:40;;;;;;;4.95;4.25;;;;;;;3.83;67.38;101397.78;692434;28;21366;-61
2021/03/08 01:42:01;;;;;;;4.53;4.13;;;;;;;3.83;67.48;101403.13;692132;28;20363;-61
2021/03/08 01:42:23;;;;;;;4.95;4.20;;;;;;;3.82;67.49;101395.25;692493;28;13133;-61
2021/03/08 01:42:44;;;;;;;5.38;3.92;;;;;;;3.82;67.41;101405.94;692136;28;44428;-61
2021/03/08 01:43:07;;;;;;;4.40;3.95;;;;;;;3.83;67.47;101403.13;693061;28;22384;-61
2021/03/08 01:43:28;;;;;;;4.32;3.92;;;;;;;3.83;67.42;101402.28;690900;28;70642;-61
2021/03/08 01:43:50;;;;;;;4.53;4.10;;;;;;;3.83;67.40;101403.13;692941;28;22494;-61
2021/03/08 01:44:11;;;;;;;5.15;4.15;;;;;;;3.82;67.43;101396.06;692402;28;31537;-61
2021/03/08 01:44:32;;;;;;;4.82;4.15;;;;;;;3.82;67.43;101400.59;693147;28;17226;-60